DTTF/GAF METAR and TAF weather

Enter ICAO airport designator
Station Type Date Time Source
DTTF METAR 2019/05/26 01:00 UTC NOAA

DTTF 260100Z 03009KT 8000 BKN026 16/14 Q1007 NOSIG


Station Type Date Time Source
DTTF Decoded METAR 2019/05/26 01:00 UTC NOAA

Gafsa, Tunisia (DTTF) 34-25N 008-49E 314M
May 25, 2019 - 09:00 PM EDT / 2019.05.26 0100 UTC
Wind: from the NNE (030 degrees) at 10 MPH (9 KT):0
Visibility: 4 mile(s):0
Sky conditions: mostly cloudy
Temperature: 60 F (16 C)
Dew Point: 57 F (14 C)
Relative Humidity: 87%
Pressure (altimeter): 29.74 in. Hg (1007 hPa)
ob: DTTF 260100Z 03009KT 8000 BKN026 16/14 Q1007 NOSIG
cycle: 1

Station Type Date Time Source
DTTF TAF 2018/07/22 13:33 UTC NOAA

TAF DTTF 221200Z 2213/2322 22010KT 7000 NSC PROB30
TEMPO 2216/2220 4000 -TSRA FEW026CB

Example: see airport list